sensor_id;sensor_type;location;lat;lon;timestamp;temperature;humidity
8662;DHT22;29684;47.722;9.388;2023-02-01T00:01:38;3.50;99.90
8662;DHT22;29684;47.722;9.388;2023-02-01T00:04:22;3.50;99.90
8662;DHT22;29684;47.722;9.388;2023-02-01T00:07:06;3.50;99.90
8662;DHT22;29684;47.722;9.388;2023-02-01T00:09:51;3.50;99.90
8662;DHT22;29684;47.722;9.388;2023-02-01T00:12:36;2.90;99.90
8662;DHT22;29684;47.722;9.388;2023-02-01T00:15:20;3.50;99.90
8662;DHT22;29684;47.722;9.388;2023-02-01T00:18:07;3.60;99.90
8662;DHT22;29684;47.722;9.388;2023-02-01T00:20:51;3.60;99.90
8662;DHT22;29684;47.722;9.388;2023-02-01T00:23:36;3.50;99.90
8662;DHT22;29684;47.722;9.388;2023-02-01T00:26:32;3.60;99.90
8662;DHT22;29684;47.722;9.388;2023-02-01T00:29:19;4.40;99.90
8662;DHT22;29684;47.722;9.388;2023-02-01T00:32:04;3.50;99.90
8662;DHT22;29684;47.722;9.388;2023-02-01T00:34:48;3.40;99.90
8662;DHT22;29684;47.722;9.388;2023-02-01T00:37:32;3.50;99.90
8662;DHT22;29684;47.722;9.388;2023-02-01T00:40:16;4.90;99.90
8662;DHT22;29684;47.722;9.388;2023-02-01T00:43:00;3.70;99.90
8662;DHT22;29684;47.722;9.388;2023-02-01T00:45:48;3.60;99.90
8662;DHT22;29684;47.722;9.388;2023-02-01T00:48:32;3.70;99.90
8662;DHT22;29684;47.722;9.388;2023-02-01T00:51:20;3.60;99.90
8662;DHT22;29684;47.722;9.388;2023-02-01T00:54:04;3.50;99.90
8662;DHT22;29684;47.722;9.388;2023-02-01T00:56:48;3.60;99.90
8662;DHT22;29684;47.722;9.388;2023-02-01T00:59:33;2.50;99.90
8662;DHT22;29684;47.722;9.388;2023-02-01T01:02:18;3.70;99.90
8662;DHT22;29684;47.722;9.388;2023-02-01T01:05:02;3.60;99.90
8662;DHT22;29684;47.722;9.388;2023-02-01T01:07:47;3.70;99.90
8662;DHT22;29684;47.722;9.388;2023-02-01T01:10:32;3.00;99.90
8662;DHT22;29684;47.722;9.388;2023-02-01T01:13:16;3.70;99.90
8662;DHT22;29684;47.722;9.388;2023-02-01T01:16:01;3.70;99.90
8662;DHT22;29684;47.722;9.388;2023-02-01T01:18:47;3.50;99.90
8662;DHT22;29684;47.722;9.388;2023-02-01T01:21:31;3.30;99.90
8662;DHT22;29684;47.722;9.388;2023-02-01T01:24:16;3.60;99.90
8662;DHT22;29684;47.722;9.388;2023-02-01T01:27:00;3.50;99.90
8662;DHT22;29684;47.722;9.388;2023-02-01T01:29:44;3.70;99.90
8662;DHT22;29684;47.722;9.388;2023-02-01T01:32:28;3.70;99.90
8662;DHT22;29684;47.722;9.388;2023-02-01T01:35:13;3.60;99.90
8662;DHT22;29684;47.722;9.388;2023-02-01T01:37:59;3.70;99.90
8662;DHT22;29684;47.722;9.388;2023-02-01T01:40:48;3.70;99.90
8662;DHT22;29684;47.722;9.388;2023-02-01T01:43:54;3.70;99.90
8662;DHT22;29684;47.722;9.388;2023-02-01T01:46:39;3.80;99.90
8662;DHT22;29684;47.722;9.388;2023-02-01T01:49:25;3.70;99.90
8662;DHT22;29684;47.722;9.388;2023-02-01T01:52:10;3.70;99.90
8662;DHT22;29684;47.722;9.388;2023-02-01T01:54:54;3.70;99.90
8662;DHT22;29684;47.722;9.388;2023-02-01T01:57:43;4.40;99.90
8662;DHT22;29684;47.722;9.388;2023-02-01T02:00:30;3.70;99.90
8662;DHT22;29684;47.722;9.388;2023-02-01T02:03:33;3.90;99.90
8662;DHT22;29684;47.722;9.388;2023-02-01T02:06:29;3.70;99.90
8662;DHT22;29684;47.722;9.388;2023-02-01T02:09:15;3.70;99.90
8662;DHT22;29684;47.722;9.388;2023-02-01T02:12:00;3.80;99.90
8662;DHT22;29684;47.722;9.388;2023-02-01T02:14:44;3.90;99.90
8662;DHT22;29684;47.722;9.388;2023-02-01T02:30:41;3.80;99.90
8662;DHT22;29684;47.722;9.388;2023-02-01T02:33:41;3.80;99.90
8662;DHT22;29684;47.722;9.388;2023-02-01T02:42:39;3.60;99.90
8662;DHT22;29684;47.722;9.388;2023-02-01T02:45:49;3.70;99.90
8662;DHT22;29684;47.722;9.388;2023-02-01T02:52:15;3.70;99.90
8662;DHT22;29684;47.722;9.388;2023-02-01T02:55:20;3.70;99.90
8662;DHT22;29684;47.722;9.388;2023-02-01T02:58:07;3.70;99.90
8662;DHT22;29684;47.722;9.388;2023-02-01T03:01:11;3.70;99.90
8662;DHT22;29684;47.722;9.388;2023-02-01T03:04:15;4.00;99.90
8662;DHT22;29684;47.722;9.388;2023-02-01T03:10:44;3.70;99.90
8662;DHT22;29684;47.722;9.388;2023-02-01T03:13:42;3.60;99.90
8662;DHT22;29684;47.722;9.388;2023-02-01T03:19:25;3.60;99.90
8662;DHT22;29684;47.722;9.388;2023-02-01T03:22:14;3.60;99.90
8662;DHT22;29684;47.722;9.388;2023-02-01T03:25:05;4.50;99.90
8662;DHT22;29684;47.722;9.388;2023-02-01T03:30:41;3.60;99.90
8662;DHT22;29684;47.722;9.388;2023-02-01T03:33:27;3.30;99.90
8662;DHT22;29684;47.722;9.388;2023-02-01T03:36:35;3.60;99.90
8662;DHT22;29684;47.722;9.388;2023-02-01T03:39:36;3.50;99.90
8662;DHT22;29684;47.722;9.388;2023-02-01T03:42:39;3.60;99.90
8662;DHT22;29684;47.722;9.388;2023-02-01T03:45:38;5.80;99.90
8662;DHT22;29684;47.722;9.388;2023-02-01T03:48:27;3.50;99.90
8662;DHT22;29684;47.722;9.388;2023-02-01T03:51:13;4.00;99.90
8662;DHT22;29684;47.722;9.388;2023-02-01T03:53:59;3.50;99.90
8662;DHT22;29684;47.722;9.388;2023-02-01T03:56:46;3.50;99.90
8662;DHT22;29684;47.722;9.388;2023-02-01T03:59:31;3.40;99.90
8662;DHT22;29684;47.722;9.388;2023-02-01T04:02:16;3.40;99.90
8662;DHT22;29684;47.722;9.388;2023-02-01T04:05:00;3.30;99.90
8662;DHT22;29684;47.722;9.388;2023-02-01T04:07:44;3.40;99.90
8662;DHT22;29684;47.722;9.388;2023-02-01T04:10:28;3.40;99.90
8662;DHT22;29684;47.722;9.388;2023-02-01T04:13:13;3.30;99.90
8662;DHT22;29684;47.722;9.388;2023-02-01T04:15:57;5.50;99.90
8662;DHT22;29684;47.722;9.388;2023-02-01T04:18:41;3.30;99.90
8662;DHT22;29684;47.722;9.388;2023-02-01T04:21:26;3.30;99.90
8662;DHT22;29684;47.722;9.388;2023-02-01T04:24:11;3.20;99.90
8662;DHT22;29684;47.722;9.388;2023-02-01T04:26:55;3.20;99.90
8662;DHT22;29684;47.722;9.388;2023-02-01T04:29:40;3.80;99.90
8662;DHT22;29684;47.722;9.388;2023-02-01T04:32:25;3.30;99.90
8662;DHT22;29684;47.722;9.388;2023-02-01T04:35:09;3.30;99.90
8662;DHT22;29684;47.722;9.388;2023-02-01T04:37:54;3.30;99.90
8662;DHT22;29684;47.722;9.388;2023-02-01T04:40:38;3.30;99.90
8662;DHT22;29684;47.722;9.388;2023-02-01T04:43:22;3.20;99.90
8662;DHT22;29684;47.722;9.388;2023-02-01T04:46:06;3.20;99.90
8662;DHT22;29684;47.722;9.388;2023-02-01T04:48:50;3.20;99.90
8662;DHT22;29684;47.722;9.388;2023-02-01T04:51:34;3.20;99.90
8662;DHT22;29684;47.722;9.388;2023-02-01T04:54:18;3.20;99.90
8662;DHT22;29684;47.722;9.388;2023-02-01T04:57:03;3.20;99.90
8662;DHT22;29684;47.722;9.388;2023-02-01T04:59:47;3.10;99.90
8662;DHT22;29684;47.722;9.388;2023-02-01T05:02:31;4.10;99.90
8662;DHT22;29684;47.722;9.388;2023-02-01T05:05:16;3.00;99.90
8662;DHT22;29684;47.722;9.388;2023-02-01T05:08:00;2.70;99.90
8662;DHT22;29684;47.722;9.388;2023-02-01T05:10:45;3.00;99.90
8662;DHT22;29684;47.722;9.388;2023-02-01T05:13:30;2.70;99.90
8662;DHT22;29684;47.722;9.388;2023-02-01T05:16:33;3.00;99.90
8662;DHT22;29684;47.722;9.388;2023-02-01T05:19:17;2.70;99.90
8662;DHT22;29684;47.722;9.388;2023-02-01T05:22:01;2.60;99.90
8662;DHT22;29684;47.722;9.388;2023-02-01T05:24:45;3.00;99.90
8662;DHT22;29684;47.722;9.388;2023-02-01T05:27:30;3.10;99.90
8662;DHT22;29684;47.722;9.388;2023-02-01T05:30:15;2.90;99.90
8662;DHT22;29684;47.722;9.388;2023-02-01T05:33:00;5.70;99.90
8662;DHT22;29684;47.722;9.388;2023-02-01T05:35:44;2.90;99.90
8662;DHT22;29684;47.722;9.388;2023-02-01T05:38:28;2.50;99.90
8662;DHT22;29684;47.722;9.388;2023-02-01T05:41:13;3.00;99.90
8662;DHT22;29684;47.722;9.388;2023-02-01T05:43:58;3.00;99.90
8662;DHT22;29684;47.722;9.388;2023-02-01T05:46:42;3.00;99.90
8662;DHT22;29684;47.722;9.388;2023-02-01T05:49:26;3.00;99.90
8662;DHT22;29684;47.722;9.388;2023-02-01T05:52:10;3.00;99.90
8662;DHT22;29684;47.722;9.388;2023-02-01T05:54:54;3.00;99.90
8662;DHT22;29684;47.722;9.388;2023-02-01T05:57:38;3.00;99.90
8662;DHT22;29684;47.722;9.388;2023-02-01T06:00:23;3.00;99.90
8662;DHT22;29684;47.722;9.388;2023-02-01T06:03:07;3.00;99.90
8662;DHT22;29684;47.722;9.388;2023-02-01T06:05:51;2.90;99.90
8662;DHT22;29684;47.722;9.388;2023-02-01T06:08:36;3.00;99.90
8662;DHT22;29684;47.722;9.388;2023-02-01T06:11:20;3.10;99.90
8662;DHT22;29684;47.722;9.388;2023-02-01T06:14:04;3.00;99.90
8662;DHT22;29684;47.722;9.388;2023-02-01T06:16:52;2.90;99.90
8662;DHT22;29684;47.722;9.388;2023-02-01T06:19:36;3.00;99.90
8662;DHT22;29684;47.722;9.388;2023-02-01T06:22:20;3.00;99.90
8662;DHT22;29684;47.722;9.388;2023-02-01T06:25:07;2.90;99.90
8662;DHT22;29684;47.722;9.388;2023-02-01T06:27:52;3.00;99.90
8662;DHT22;29684;47.722;9.388;2023-02-01T06:30:36;3.00;99.90
8662;DHT22;29684;47.722;9.388;2023-02-01T06:33:20;2.60;99.90
8662;DHT22;29684;47.722;9.388;2023-02-01T06:36:07;3.00;99.90
8662;DHT22;29684;47.722;9.388;2023-02-01T06:38:52;3.00;99.90
8662;DHT22;29684;47.722;9.388;2023-02-01T06:41:37;3.00;99.90
8662;DHT22;29684;47.722;9.388;2023-02-01T06:44:21;3.00;99.90
8662;DHT22;29684;47.722;9.388;2023-02-01T06:47:05;3.00;99.90
8662;DHT22;29684;47.722;9.388;2023-02-01T06:49:50;3.10;99.90
8662;DHT22;29684;47.722;9.388;2023-02-01T06:52:35;2.90;99.90
8662;DHT22;29684;47.722;9.388;2023-02-01T06:55:19;3.00;99.90
8662;DHT22;29684;47.722;9.388;2023-02-01T06:58:04;3.00;99.90
8662;DHT22;29684;47.722;9.388;2023-02-01T07:00:49;3.00;99.90
8662;DHT22;29684;47.722;9.388;2023-02-01T07:03:34;1.80;99.90
8662;DHT22;29684;47.722;9.388;2023-02-01T07:06:19;4.20;99.90
8662;DHT22;29684;47.722;9.388;2023-02-01T07:09:04;3.00;99.90
8662;DHT22;29684;47.722;9.388;2023-02-01T07:11:48;1.70;99.90
8662;DHT22;29684;47.722;9.388;2023-02-01T07:14:32;3.00;99.90
8662;DHT22;29684;47.722;9.388;2023-02-01T07:17:17;3.00;99.90
8662;DHT22;29684;47.722;9.388;2023-02-01T07:20:02;3.00;99.90
8662;DHT22;29684;47.722;9.388;2023-02-01T07:22:46;3.10;99.90
8662;DHT22;29684;47.722;9.388;2023-02-01T07:25:31;3.00;99.90
8662;DHT22;29684;47.722;9.388;2023-02-01T07:28:15;3.10;99.90
8662;DHT22;29684;47.722;9.388;2023-02-01T07:31:14;3.10;99.90
8662;DHT22;29684;47.722;9.388;2023-02-01T07:33:59;2.70;99.90
8662;DHT22;29684;47.722;9.388;2023-02-01T07:36:44;3.10;99.90
8662;DHT22;29684;47.722;9.388;2023-02-01T07:39:29;3.20;99.90
8662;DHT22;29684;47.722;9.388;2023-02-01T07:42:15;3.20;99.90
8662;DHT22;29684;47.722;9.388;2023-02-01T07:45:00;3.10;99.90
8662;DHT22;29684;47.722;9.388;2023-02-01T07:47:44;3.10;99.90
8662;DHT22;29684;47.722;9.388;2023-02-01T07:50:29;3.20;99.90
8662;DHT22;29684;47.722;9.388;2023-02-01T07:53:13;3.20;99.90
8662;DHT22;29684;47.722;9.388;2023-02-01T07:55:58;3.00;99.90
8662;DHT22;29684;47.722;9.388;2023-02-01T07:58:43;3.10;99.90
8662;DHT22;29684;47.722;9.388;2023-02-01T08:01:30;3.10;99.90
8662;DHT22;29684;47.722;9.388;2023-02-01T08:04:14;3.10;99.90
8662;DHT22;29684;47.722;9.388;2023-02-01T08:07:00;3.20;99.90
8662;DHT22;29684;47.722;9.388;2023-02-01T08:09:44;2.90;99.90
8662;DHT22;29684;47.722;9.388;2023-02-01T08:12:28;3.20;99.90
8662;DHT22;29684;47.722;9.388;2023-02-01T08:15:12;3.10;99.90
8662;DHT22;29684;47.722;9.388;2023-02-01T08:17:56;3.10;99.90
8662;DHT22;29684;47.722;9.388;2023-02-01T08:20:42;3.20;99.90
8662;DHT22;29684;47.722;9.388;2023-02-01T08:23:29;3.20;99.90
8662;DHT22;29684;47.722;9.388;2023-02-01T08:26:18;3.20;99.90
8662;DHT22;29684;47.722;9.388;2023-02-01T08:29:05;3.20;99.90
8662;DHT22;29684;47.722;9.388;2023-02-01T08:31:49;3.10;99.90
8662;DHT22;29684;47.722;9.388;2023-02-01T08:34:34;2.80;99.90
8662;DHT22;29684;47.722;9.388;2023-02-01T08:37:19;3.20;99.90
8662;DHT22;29684;47.722;9.388;2023-02-01T08:40:06;3.20;99.90
8662;DHT22;29684;47.722;9.388;2023-02-01T08:42:51;3.20;99.90
8662;DHT22;29684;47.722;9.388;2023-02-01T08:45:35;2.80;99.90
8662;DHT22;29684;47.722;9.388;2023-02-01T08:48:21;4.10;99.90
8662;DHT22;29684;47.722;9.388;2023-02-01T08:51:07;3.30;99.90
8662;DHT22;29684;47.722;9.388;2023-02-01T08:53:51;3.70;99.90
8662;DHT22;29684;47.722;9.388;2023-02-01T08:56:36;3.30;99.90
8662;DHT22;29684;47.722;9.388;2023-02-01T08:59:20;4.10;99.90
8662;DHT22;29684;47.722;9.388;2023-02-01T09:02:04;4.40;99.90
8662;DHT22;29684;47.722;9.388;2023-02-01T09:04:49;3.20;99.90
8662;DHT22;29684;47.722;9.388;2023-02-01T09:07:34;3.90;99.90
8662;DHT22;29684;47.722;9.388;2023-02-01T09:10:19;3.50;99.90
8662;DHT22;29684;47.722;9.388;2023-02-01T09:13:03;3.40;99.90
8662;DHT22;29684;47.722;9.388;2023-02-01T09:15:50;3.40;99.90
8662;DHT22;29684;47.722;9.388;2023-02-01T09:18:35;3.60;99.90
8662;DHT22;29684;47.722;9.388;2023-02-01T09:21:19;3.50;99.90
8662;DHT22;29684;47.722;9.388;2023-02-01T09:24:03;3.30;99.90
8662;DHT22;29684;47.722;9.388;2023-02-01T09:26:48;3.60;99.90
8662;DHT22;29684;47.722;9.388;2023-02-01T09:29:32;3.50;99.90
8662;DHT22;29684;47.722;9.388;2023-02-01T09:32:16;4.00;99.90
8662;DHT22;29684;47.722;9.388;2023-02-01T09:35:00;3.70;99.90
8662;DHT22;29684;47.722;9.388;2023-02-01T09:37:45;3.60;99.90
8662;DHT22;29684;47.722;9.388;2023-02-01T09:40:29;3.70;99.90
8662;DHT22;29684;47.722;9.388;2023-02-01T09:43:45;3.70;99.90
8662;DHT22;29684;47.722;9.388;2023-02-01T09:46:32;3.70;99.90
8662;DHT22;29684;47.722;9.388;2023-02-01T09:49:26;3.90;99.90
8662;DHT22;29684;47.722;9.388;2023-02-01T09:52:13;3.80;99.90
8662;DHT22;29684;47.722;9.388;2023-02-01T09:55:03;3.90;99.90
8662;DHT22;29684;47.722;9.388;2023-02-01T09:58:03;3.80;99.90
8662;DHT22;29684;47.722;9.388;2023-02-01T10:00:59;3.90;99.90
8662;DHT22;29684;47.722;9.388;2023-02-01T10:03:44;3.90;99.90
8662;DHT22;29684;47.722;9.388;2023-02-01T10:06:30;3.50;99.90
8662;DHT22;29684;47.722;9.388;2023-02-01T10:15:44;4.10;99.90
8662;DHT22;29684;47.722;9.388;2023-02-01T10:24:47;4.20;99.90
8662;DHT22;29684;47.722;9.388;2023-02-01T10:27:37;4.30;99.90
8662;DHT22;29684;47.722;9.388;2023-02-01T10:30:25;4.00;99.90
8662;DHT22;29684;47.722;9.388;2023-02-01T10:33:18;4.40;99.90
8662;DHT22;29684;47.722;9.388;2023-02-01T10:36:22;4.30;99.90
8662;DHT22;29684;47.722;9.388;2023-02-01T10:39:11;4.40;99.90
8662;DHT22;29684;47.722;9.388;2023-02-01T10:41:57;4.50;99.90
8662;DHT22;29684;47.722;9.388;2023-02-01T10:44:43;4.50;99.90
8662;DHT22;29684;47.722;9.388;2023-02-01T10:47:29;4.50;99.90
8662;DHT22;29684;47.722;9.388;2023-02-01T10:50:37;4.70;99.90
8662;DHT22;29684;47.722;9.388;2023-02-01T10:53:42;5.90;99.90
8662;DHT22;29684;47.722;9.388;2023-02-01T10:56:28;5.20;99.90
8662;DHT22;29684;47.722;9.388;2023-02-01T10:59:23;5.60;99.90
8662;DHT22;29684;47.722;9.388;2023-02-01T11:02:30;5.00;99.90
8662;DHT22;29684;47.722;9.388;2023-02-01T11:05:15;4.90;99.90
8662;DHT22;29684;47.722;9.388;2023-02-01T11:08:00;4.70;99.90
8662;DHT22;29684;47.722;9.388;2023-02-01T11:10:44;5.00;99.90
8662;DHT22;29684;47.722;9.388;2023-02-01T11:13:30;4.50;99.90
8662;DHT22;29684;47.722;9.388;2023-02-01T11:16:16;5.10;99.90
8662;DHT22;29684;47.722;9.388;2023-02-01T11:19:00;5.20;99.90
8662;DHT22;29684;47.722;9.388;2023-02-01T11:21:52;5.50;99.90
8662;DHT22;29684;47.722;9.388;2023-02-01T11:24:37;5.10;99.90
8662;DHT22;29684;47.722;9.388;2023-02-01T11:27:24;5.60;99.90
8662;DHT22;29684;47.722;9.388;2023-02-01T11:30:32;6.00;99.90
8662;DHT22;29684;47.722;9.388;2023-02-01T11:33:19;5.10;99.90
8662;DHT22;29684;47.722;9.388;2023-02-01T11:36:10;5.20;99.90
8662;DHT22;29684;47.722;9.388;2023-02-01T11:42:12;5.20;99.90
8662;DHT22;29684;47.722;9.388;2023-02-01T11:45:18;5.30;99.90
8662;DHT22;29684;47.722;9.388;2023-02-01T11:48:08;5.30;99.90
8662;DHT22;29684;47.722;9.388;2023-02-01T11:54:29;5.20;99.90
8662;DHT22;29684;47.722;9.388;2023-02-01T12:06:38;5.40;99.90
8662;DHT22;29684;47.722;9.388;2023-02-01T12:16:31;5.30;99.90
8662;DHT22;29684;47.722;9.388;2023-02-01T12:19:36;5.40;99.90
8662;DHT22;29684;47.722;9.388;2023-02-01T12:29:28;5.40;99.90
8662;DHT22;29684;47.722;9.388;2023-02-01T12:36:09;5.50;99.90
8662;DHT22;29684;47.722;9.388;2023-02-01T12:39:22;5.50;99.90
8662;DHT22;29684;47.722;9.388;2023-02-01T12:45:12;5.50;99.90
8662;DHT22;29684;47.722;9.388;2023-02-01T12:51:09;5.60;99.90
8662;DHT22;29684;47.722;9.388;2023-02-01T12:54:04;5.60;99.90
8662;DHT22;29684;47.722;9.388;2023-02-01T12:56:55;5.60;99.90
8662;DHT22;29684;47.722;9.388;2023-02-01T12:59:48;6.30;99.90
8662;DHT22;29684;47.722;9.388;2023-02-01T13:02:47;5.70;99.90
8662;DHT22;29684;47.722;9.388;2023-02-01T13:11:57;6.10;99.90
8662;DHT22;29684;47.722;9.388;2023-02-01T13:15:10;6.80;99.90
8662;DHT22;29684;47.722;9.388;2023-02-01T13:18:02;5.50;99.90
8662;DHT22;29684;47.722;9.388;2023-02-01T13:20:58;5.30;99.90
8662;DHT22;29684;47.722;9.388;2023-02-01T13:23:47;5.20;99.90
8662;DHT22;29684;47.722;9.388;2023-02-01T13:26:32;5.20;99.90
8662;DHT22;29684;47.722;9.388;2023-02-01T13:29:16;5.10;99.90
8662;DHT22;29684;47.722;9.388;2023-02-01T13:32:21;4.80;99.90
8662;DHT22;29684;47.722;9.388;2023-02-01T13:43:40;5.20;99.90
8662;DHT22;29684;47.722;9.388;2023-02-01T13:46:28;5.20;99.90
8662;DHT22;29684;47.722;9.388;2023-02-01T13:49:21;5.50;99.90
8662;DHT22;29684;47.722;9.388;2023-02-01T13:52:06;5.10;99.90
8662;DHT22;29684;47.722;9.388;2023-02-01T14:04:46;5.10;99.90
8662;DHT22;29684;47.722;9.388;2023-02-01T14:07:30;5.20;99.90
8662;DHT22;29684;47.722;9.388;2023-02-01T14:10:53;5.20;99.90
8662;DHT22;29684;47.722;9.388;2023-02-01T14:13:41;5.20;99.90
8662;DHT22;29684;47.722;9.388;2023-02-01T14:16:25;6.40;99.90
8662;DHT22;29684;47.722;9.388;2023-02-01T14:19:25;5.40;99.90
8662;DHT22;29684;47.722;9.388;2023-02-01T14:25:16;5.60;99.90
8662;DHT22;29684;47.722;9.388;2023-02-01T14:28:01;5.10;99.90
8662;DHT22;29684;47.722;9.388;2023-02-01T14:30:56;4.70;99.90
8662;DHT22;29684;47.722;9.388;2023-02-01T14:36:27;5.20;99.90
8662;DHT22;29684;47.722;9.388;2023-02-01T14:39:30;5.90;99.90
8662;DHT22;29684;47.722;9.388;2023-02-01T14:50:50;5.10;99.90
8662;DHT22;29684;47.722;9.388;2023-02-01T14:53:36;4.80;99.90
8662;DHT22;29684;47.722;9.388;2023-02-01T14:56:21;5.10;99.90
8662;DHT22;29684;47.722;9.388;2023-02-01T14:59:11;5.20;99.90
8662;DHT22;29684;47.722;9.388;2023-02-01T15:01:57;5.60;99.90
8662;DHT22;29684;47.722;9.388;2023-02-01T15:04:43;5.20;99.90
8662;DHT22;29684;47.722;9.388;2023-02-01T15:07:28;4.80;99.90
8662;DHT22;29684;47.722;9.388;2023-02-01T15:10:13;5.50;99.90
8662;DHT22;29684;47.722;9.388;2023-02-01T15:12:58;5.20;99.90
8662;DHT22;29684;47.722;9.388;2023-02-01T15:15:42;4.90;99.90
8662;DHT22;29684;47.722;9.388;2023-02-01T15:18:26;4.90;99.90
8662;DHT22;29684;47.722;9.388;2023-02-01T15:21:20;5.00;99.90
8662;DHT22;29684;47.722;9.388;2023-02-01T15:24:22;5.20;99.90
8662;DHT22;29684;47.722;9.388;2023-02-01T15:27:09;5.20;99.90
8662;DHT22;29684;47.722;9.388;2023-02-01T15:29:54;5.20;99.90
8662;DHT22;29684;47.722;9.388;2023-02-01T15:32:48;5.30;99.90
8662;DHT22;29684;47.722;9.388;2023-02-01T15:38:32;5.20;99.90
8662;DHT22;29684;47.722;9.388;2023-02-01T15:41:20;5.20;99.90
8662;DHT22;29684;47.722;9.388;2023-02-01T15:44:21;5.20;99.90
8662;DHT22;29684;47.722;9.388;2023-02-01T15:47:26;4.90;99.90
8662;DHT22;29684;47.722;9.388;2023-02-01T15:50:16;5.10;99.90
8662;DHT22;29684;47.722;9.388;2023-02-01T15:53:03;5.10;99.90
8662;DHT22;29684;47.722;9.388;2023-02-01T15:55:52;5.10;99.90
8662;DHT22;29684;47.722;9.388;2023-02-01T15:58:42;5.10;99.90
8662;DHT22;29684;47.722;9.388;2023-02-01T16:01:29;5.10;99.90
8662;DHT22;29684;47.722;9.388;2023-02-01T16:07:00;5.20;99.90
8662;DHT22;29684;47.722;9.388;2023-02-01T16:09:53;4.70;99.90
8662;DHT22;29684;47.722;9.388;2023-02-01T16:15:22;5.00;99.90
8662;DHT22;29684;47.722;9.388;2023-02-01T16:18:07;4.90;99.90
8662;DHT22;29684;47.722;9.388;2023-02-01T16:20:53;5.00;99.90
8662;DHT22;29684;47.722;9.388;2023-02-01T16:23:37;4.90;99.90
8662;DHT22;29684;47.722;9.388;2023-02-01T16:26:22;5.00;99.90
8662;DHT22;29684;47.722;9.388;2023-02-01T16:29:06;5.00;99.90
8662;DHT22;29684;47.722;9.388;2023-02-01T16:31:51;4.60;99.90
8662;DHT22;29684;47.722;9.388;2023-02-01T16:34:35;5.20;99.90
8662;DHT22;29684;47.722;9.388;2023-02-01T16:37:22;4.90;99.90
8662;DHT22;29684;47.722;9.388;2023-02-01T16:40:16;4.90;99.90
8662;DHT22;29684;47.722;9.388;2023-02-01T16:43:01;4.90;99.90
8662;DHT22;29684;47.722;9.388;2023-02-01T16:45:46;4.40;99.90
8662;DHT22;29684;47.722;9.388;2023-02-01T16:48:35;5.00;99.90
8662;DHT22;29684;47.722;9.388;2023-02-01T16:51:23;4.80;99.90
8662;DHT22;29684;47.722;9.388;2023-02-01T16:54:08;5.70;99.90
8662;DHT22;29684;47.722;9.388;2023-02-01T16:57:00;4.60;99.90
8662;DHT22;29684;47.722;9.388;2023-02-01T16:59:44;5.10;99.90
8662;DHT22;29684;47.722;9.388;2023-02-01T17:02:28;4.90;99.90
8662;DHT22;29684;47.722;9.388;2023-02-01T17:05:12;4.40;99.90
8662;DHT22;29684;47.722;9.388;2023-02-01T17:07:59;4.90;99.90
8662;DHT22;29684;47.722;9.388;2023-02-01T17:10:47;4.90;99.90
8662;DHT22;29684;47.722;9.388;2023-02-01T17:13:32;4.90;99.90
8662;DHT22;29684;47.722;9.388;2023-02-01T17:16:26;6.00;99.90
8662;DHT22;29684;47.722;9.388;2023-02-01T17:19:17;5.00;99.90
8662;DHT22;29684;47.722;9.388;2023-02-01T17:22:02;4.90;99.90
8662;DHT22;29684;47.722;9.388;2023-02-01T17:24:47;4.90;99.90
8662;DHT22;29684;47.722;9.388;2023-02-01T17:27:31;4.90;99.90
8662;DHT22;29684;47.722;9.388;2023-02-01T17:30:20;4.80;99.90
8662;DHT22;29684;47.722;9.388;2023-02-01T17:33:04;4.90;99.90
8662;DHT22;29684;47.722;9.388;2023-02-01T17:35:55;4.90;99.90
8662;DHT22;29684;47.722;9.388;2023-02-01T17:38:41;4.90;99.90
8662;DHT22;29684;47.722;9.388;2023-02-01T17:41:25;4.90;99.90
8662;DHT22;29684;47.722;9.388;2023-02-01T17:44:09;4.90;99.90
8662;DHT22;29684;47.722;9.388;2023-02-01T17:46:54;4.90;99.90
8662;DHT22;29684;47.722;9.388;2023-02-01T17:49:40;4.80;99.90
8662;DHT22;29684;47.722;9.388;2023-02-01T17:52:24;4.90;99.90
8662;DHT22;29684;47.722;9.388;2023-02-01T17:55:20;4.80;99.90
8662;DHT22;29684;47.722;9.388;2023-02-01T17:58:10;4.80;99.90
8662;DHT22;29684;47.722;9.388;2023-02-01T18:00:56;4.90;99.90
8662;DHT22;29684;47.722;9.388;2023-02-01T18:03:41;4.80;99.90
8662;DHT22;29684;47.722;9.388;2023-02-01T18:06:26;4.80;99.90
8662;DHT22;29684;47.722;9.388;2023-02-01T18:09:10;4.70;99.90
8662;DHT22;29684;47.722;9.388;2023-02-01T18:11:54;4.90;99.90
8662;DHT22;29684;47.722;9.388;2023-02-01T18:14:39;4.90;99.90
8662;DHT22;29684;47.722;9.388;2023-02-01T18:17:25;4.90;99.90
8662;DHT22;29684;47.722;9.388;2023-02-01T18:20:21;4.60;99.90
8662;DHT22;29684;47.722;9.388;2023-02-01T18:23:18;4.90;99.90
8662;DHT22;29684;47.722;9.388;2023-02-01T18:26:07;4.80;99.90
8662;DHT22;29684;47.722;9.388;2023-02-01T18:28:53;4.90;99.90
8662;DHT22;29684;47.722;9.388;2023-02-01T18:31:43;4.70;99.90
8662;DHT22;29684;47.722;9.388;2023-02-01T18:34:28;4.90;99.90
8662;DHT22;29684;47.722;9.388;2023-02-01T18:37:12;4.90;99.90
8662;DHT22;29684;47.722;9.388;2023-02-01T18:39:59;4.90;99.90
8662;DHT22;29684;47.722;9.388;2023-02-01T18:42:44;5.00;99.90
8662;DHT22;29684;47.722;9.388;2023-02-01T18:48:15;4.90;99.90
8662;DHT22;29684;47.722;9.388;2023-02-01T18:51:02;4.90;99.90
8662;DHT22;29684;47.722;9.388;2023-02-01T18:53:50;4.90;99.90
8662;DHT22;29684;47.722;9.388;2023-02-01T18:56:37;4.90;99.90
8662;DHT22;29684;47.722;9.388;2023-02-01T18:59:22;4.90;99.90
8662;DHT22;29684;47.722;9.388;2023-02-01T19:02:07;4.90;99.90
8662;DHT22;29684;47.722;9.388;2023-02-01T19:04:53;4.80;99.90
8662;DHT22;29684;47.722;9.388;2023-02-01T19:07:38;4.90;99.90
8662;DHT22;29684;47.722;9.388;2023-02-01T19:10:23;4.90;99.90
8662;DHT22;29684;47.722;9.388;2023-02-01T19:13:12;4.90;99.90
8662;DHT22;29684;47.722;9.388;2023-02-01T19:15:56;4.80;99.90
8662;DHT22;29684;47.722;9.388;2023-02-01T19:18:41;4.80;99.90
8662;DHT22;29684;47.722;9.388;2023-02-01T19:21:26;4.50;99.90
8662;DHT22;29684;47.722;9.388;2023-02-01T19:24:10;4.80;99.90
8662;DHT22;29684;47.722;9.388;2023-02-01T19:26:54;4.80;99.90
8662;DHT22;29684;47.722;9.388;2023-02-01T19:29:39;4.80;99.90
8662;DHT22;29684;47.722;9.388;2023-02-01T19:32:26;4.80;99.90
8662;DHT22;29684;47.722;9.388;2023-02-01T19:35:12;4.90;99.90
8662;DHT22;29684;47.722;9.388;2023-02-01T19:37:57;4.90;99.90
8662;DHT22;29684;47.722;9.388;2023-02-01T19:40:41;4.90;99.90
8662;DHT22;29684;47.722;9.388;2023-02-01T19:43:25;4.60;99.90
8662;DHT22;29684;47.722;9.388;2023-02-01T19:46:10;4.80;99.90
8662;DHT22;29684;47.722;9.388;2023-02-01T19:48:54;4.80;99.90
8662;DHT22;29684;47.722;9.388;2023-02-01T19:51:38;6.40;99.90
8662;DHT22;29684;47.722;9.388;2023-02-01T19:54:24;4.80;99.90
8662;DHT22;29684;47.722;9.388;2023-02-01T19:57:09;4.90;99.90
8662;DHT22;29684;47.722;9.388;2023-02-01T19:59:53;4.50;99.90
8662;DHT22;29684;47.722;9.388;2023-02-01T20:02:38;4.90;99.90
8662;DHT22;29684;47.722;9.388;2023-02-01T20:05:23;4.80;99.90
8662;DHT22;29684;47.722;9.388;2023-02-01T20:08:07;5.10;99.90
8662;DHT22;29684;47.722;9.388;2023-02-01T20:10:51;4.80;99.90
8662;DHT22;29684;47.722;9.388;2023-02-01T20:13:35;4.80;99.90
8662;DHT22;29684;47.722;9.388;2023-02-01T20:16:22;4.90;99.90
8662;DHT22;29684;47.722;9.388;2023-02-01T20:19:07;4.90;99.90
8662;DHT22;29684;47.722;9.388;2023-02-01T20:21:52;4.80;99.90
8662;DHT22;29684;47.722;9.388;2023-02-01T20:24:37;4.80;99.90
8662;DHT22;29684;47.722;9.388;2023-02-01T20:27:22;4.70;99.90
8662;DHT22;29684;47.722;9.388;2023-02-01T20:30:07;4.80;99.90